RKTY/YEC METAR and TAF weather

Enter ICAO airport designator
Station Type Date Time Source
RKTY METAR 2021/05/12 13:13 UTC NOAA

RKTY 121313Z 00000KT 9999 FEW200 15/11 A2993


Station Type Date Time Source
RKTY Decoded METAR 2021/05/12 13:13 UTC NOAA

Yechon Ab, Korea, South (RKTY) 36-38N 128-21E 120M
May 12, 2021 - 09:13 AM EDT / 2021.05.12 1313 UTC
Wind: Calm:0
Visibility: greater than 7 mile(s):0
Sky conditions: mostly clear
Temperature: 59 F (15 C)
Dew Point: 51 F (11 C)
Relative Humidity: 76%
Pressure (altimeter): 29.93 in. Hg (1013 hPa)
ob: RKTY 121313Z 00000KT 9999 FEW200 15/11 A2993
cycle: 13

Station Type Date Time Source
RKTY TAF 2013/10/14 21:45 UTC NOAA

TAF
AMD TAF
AMD RKTY 142130Z 1421/1524 09006KT 1600 BR FEW005 SCT030
BECMG 1422/1423 09006KT 4800 BR BKN030 BKN200
BECMG 1503/1504 09006KT 8000 -RA BR SCT015 OVC030
BECMG 1513/1514 09006KT 9999 NSW BKN030 TX17/1506Z TN07/1521Z

Example: see airport list